sensor_id;sensor_type;location;lat;lon;timestamp;P1;P2;P0
65012;PMS5003;51715;39.432;-77.518;2023-04-01T04:03:56;9;9;
65012;PMS5003;51715;39.432;-77.518;2023-04-01T04:06:26;11;9;
65012;PMS5003;51715;39.432;-77.518;2023-04-01T04:08:56;9;9;
65012;PMS5003;51715;39.432;-77.518;2023-04-01T04:11:24;8;8;
65012;PMS5003;51715;39.432;-77.518;2023-04-01T04:13:52;8;8;
65012;PMS5003;51715;39.432;-77.518;2023-04-01T04:16:22;9;9;
65012;PMS5003;51715;39.432;-77.518;2023-04-01T04:18:50;7;7;
65012;PMS5003;51715;39.432;-77.518;2023-04-01T04:21:18;10;9;
65012;PMS5003;51715;39.432;-77.518;2023-04-01T04:23:46;7;7;
65012;PMS5003;51715;39.432;-77.518;2023-04-01T04:26:15;11;10;
65012;PMS5003;51715;39.432;-77.518;2023-04-01T04:28:43;7;6;
65012;PMS5003;51715;39.432;-77.518;2023-04-01T04:31:12;9;8;
65012;PMS5003;51715;39.432;-77.518;2023-04-01T04:33:46;8;6;
65012;PMS5003;51715;39.432;-77.518;2023-04-01T04:36:14;10;8;
65012;PMS5003;51715;39.432;-77.518;2023-04-01T04:38:43;7;7;
65012;PMS5003;51715;39.432;-77.518;2023-04-01T04:41:12;9;8;
65012;PMS5003;51715;39.432;-77.518;2023-04-01T04:43:41;8;8;
65012;PMS5003;51715;39.432;-77.518;2023-04-01T04:46:15;5;5;
65012;PMS5003;51715;39.432;-77.518;2023-04-01T04:48:44;7;7;
65012;PMS5003;51715;39.432;-77.518;2023-04-01T04:51:14;9;9;
65012;PMS5003;51715;39.432;-77.518;2023-04-01T04:53:45;7;7;
65012;PMS5003;51715;39.432;-77.518;2023-04-01T04:56:16;12;10;
65012;PMS5003;51715;39.432;-77.518;2023-04-01T04:58:44;12;11;
65012;PMS5003;51715;39.432;-77.518;2023-04-01T05:01:14;7;7;
65012;PMS5003;51715;39.432;-77.518;2023-04-01T05:03:44;10;10;
65012;PMS5003;51715;39.432;-77.518;2023-04-01T05:06:13;10;9;
65012;PMS5003;51715;39.432;-77.518;2023-04-01T05:08:42;7;7;
65012;PMS5003;51715;39.432;-77.518;2023-04-01T05:11:12;10;8;
65012;PMS5003;51715;39.432;-77.518;2023-04-01T05:13:41;6;6;
65012;PMS5003;51715;39.432;-77.518;2023-04-01T05:16:11;8;8;
65012;PMS5003;51715;39.432;-77.518;2023-04-01T05:18:40;8;8;
65012;PMS5003;51715;39.432;-77.518;2023-04-01T05:21:10;7;7;
65012;PMS5003;51715;39.432;-77.518;2023-04-01T05:23:41;10;8;
65012;PMS5003;51715;39.432;-77.518;2023-04-01T05:26:10;8;8;
65012;PMS5003;51715;39.432;-77.518;2023-04-01T05:28:40;8;8;
65012;PMS5003;51715;39.432;-77.518;2023-04-01T05:31:09;7;7;
65012;PMS5003;51715;39.432;-77.518;2023-04-01T05:33:37;8;8;
65012;PMS5003;51715;39.432;-77.518;2023-04-01T05:36:06;10;7;
65012;PMS5003;51715;39.432;-77.518;2023-04-01T05:38:36;9;9;
65012;PMS5003;51715;39.432;-77.518;2023-04-01T05:41:05;10;9;
65012;PMS5003;51715;39.432;-77.518;2023-04-01T05:43:35;12;12;
65012;PMS5003;51715;39.432;-77.518;2023-04-01T05:46:03;13;12;
65012;PMS5003;51715;39.432;-77.518;2023-04-01T05:48:32;11;11;
65012;PMS5003;51715;39.432;-77.518;2023-04-01T05:51:00;9;9;
65012;PMS5003;51715;39.432;-77.518;2023-04-01T05:53:29;12;12;
65012;PMS5003;51715;39.432;-77.518;2023-04-01T05:56:01;13;13;
65012;PMS5003;51715;39.432;-77.518;2023-04-01T05:58:30;10;10;
65012;PMS5003;51715;39.432;-77.518;2023-04-01T06:01:00;10;10;
65012;PMS5003;51715;39.432;-77.518;2023-04-01T06:03:29;10;10;
65012;PMS5003;51715;39.432;-77.518;2023-04-01T06:05:58;13;13;
65012;PMS5003;51715;39.432;-77.518;2023-04-01T06:08:26;8;8;
65012;PMS5003;51715;39.432;-77.518;2023-04-01T06:11:00;11;11;
65012;PMS5003;51715;39.432;-77.518;2023-04-01T06:13:39;11;11;
65012;PMS5003;51715;39.432;-77.518;2023-04-01T06:16:24;13;12;
65012;PMS5003;51715;39.432;-77.518;2023-04-01T06:19:05;11;10;
65012;PMS5003;51715;39.432;-77.518;2023-04-01T06:21:48;10;10;
65012;PMS5003;51715;39.432;-77.518;2023-04-01T06:24:34;15;15;
65012;PMS5003;51715;39.432;-77.518;2023-04-01T06:27:17;15;14;
65012;PMS5003;51715;39.432;-77.518;2023-04-01T06:30:00;14;14;
65012;PMS5003;51715;39.432;-77.518;2023-04-01T06:32:56;15;15;
65012;PMS5003;51715;39.432;-77.518;2023-04-01T06:35:38;12;12;
65012;PMS5003;51715;39.432;-77.518;2023-04-01T06:38:19;12;12;
65012;PMS5003;51715;39.432;-77.518;2023-04-01T06:41:00;17;17;
65012;PMS5003;51715;39.432;-77.518;2023-04-01T06:43:44;12;12;
65012;PMS5003;51715;39.432;-77.518;2023-04-01T06:46:23;17;17;
65012;PMS5003;51715;39.432;-77.518;2023-04-01T06:49:09;19;19;
65012;PMS5003;51715;39.432;-77.518;2023-04-01T06:51:50;18;18;
65012;PMS5003;51715;39.432;-77.518;2023-04-01T06:54:25;14;14;
65012;PMS5003;51715;39.432;-77.518;2023-04-01T06:57:00;16;14;
65012;PMS5003;51715;39.432;-77.518;2023-04-01T06:59:37;14;14;
65012;PMS5003;51715;39.432;-77.518;2023-04-01T07:02:11;20;20;
65012;PMS5003;51715;39.432;-77.518;2023-04-01T07:04:50;15;14;
65012;PMS5003;51715;39.432;-77.518;2023-04-01T07:07:24;17;17;
65012;PMS5003;51715;39.432;-77.518;2023-04-01T07:09:59;19;18;
65012;PMS5003;51715;39.432;-77.518;2023-04-01T07:12:35;19;16;
65012;PMS5003;51715;39.432;-77.518;2023-04-01T07:15:13;20;20;
65012;PMS5003;51715;39.432;-77.518;2023-04-01T07:17:48;20;18;
65012;PMS5003;51715;39.432;-77.518;2023-04-01T07:20:22;25;23;
65012;PMS5003;51715;39.432;-77.518;2023-04-01T07:22:54;21;19;
65012;PMS5003;51715;39.432;-77.518;2023-04-01T07:25:27;14;14;
65012;PMS5003;51715;39.432;-77.518;2023-04-01T07:28:00;21;19;
65012;PMS5003;51715;39.432;-77.518;2023-04-01T07:30:33;19;19;
65012;PMS5003;51715;39.432;-77.518;2023-04-01T07:33:16;22;21;
65012;PMS5003;51715;39.432;-77.518;2023-04-01T07:35:51;19;19;
65012;PMS5003;51715;39.432;-77.518;2023-04-01T07:38:26;18;17;
65012;PMS5003;51715;39.432;-77.518;2023-04-01T07:41:04;29;26;
65012;PMS5003;51715;39.432;-77.518;2023-04-01T07:43:43;21;20;
65012;PMS5003;51715;39.432;-77.518;2023-04-01T07:46:23;23;23;
65012;PMS5003;51715;39.432;-77.518;2023-04-01T07:49:02;24;23;
65012;PMS5003;51715;39.432;-77.518;2023-04-01T07:51:37;22;20;
65012;PMS5003;51715;39.432;-77.518;2023-04-01T07:54:15;24;22;
65012;PMS5003;51715;39.432;-77.518;2023-04-01T07:56:54;20;20;
65012;PMS5003;51715;39.432;-77.518;2023-04-01T07:59:28;24;23;
65012;PMS5003;51715;39.432;-77.518;2023-04-01T08:02:05;19;19;
65012;PMS5003;51715;39.432;-77.518;2023-04-01T08:04:43;22;21;
65012;PMS5003;51715;39.432;-77.518;2023-04-01T08:07:23;20;19;
65012;PMS5003;51715;39.432;-77.518;2023-04-01T08:09:59;25;24;
65012;PMS5003;51715;39.432;-77.518;2023-04-01T08:12:37;24;23;
65012;PMS5003;51715;39.432;-77.518;2023-04-01T08:15:16;25;23;
65012;PMS5003;51715;39.432;-77.518;2023-04-01T08:17:53;22;21;
65012;PMS5003;51715;39.432;-77.518;2023-04-01T08:20:33;22;19;
65012;PMS5003;51715;39.432;-77.518;2023-04-01T08:23:07;24;23;
65012;PMS5003;51715;39.432;-77.518;2023-04-01T08:25:42;25;22;
65012;PMS5003;51715;39.432;-77.518;2023-04-01T08:28:18;27;22;
65012;PMS5003;51715;39.432;-77.518;2023-04-01T08:30:51;23;22;
65012;PMS5003;51715;39.432;-77.518;2023-04-01T08:33:24;21;21;
65012;PMS5003;51715;39.432;-77.518;2023-04-01T08:35:57;26;24;
65012;PMS5003;51715;39.432;-77.518;2023-04-01T08:38:30;26;24;
65012;PMS5003;51715;39.432;-77.518;2023-04-01T08:41:00;23;22;
65012;PMS5003;51715;39.432;-77.518;2023-04-01T08:43:47;17;17;
65012;PMS5003;51715;39.432;-77.518;2023-04-01T08:46:30;20;18;
65012;PMS5003;51715;39.432;-77.518;2023-04-01T08:49:23;25;23;
65012;PMS5003;51715;39.432;-77.518;2023-04-01T08:52:17;26;24;
65012;PMS5003;51715;39.432;-77.518;2023-04-01T08:55:02;20;20;
65012;PMS5003;51715;39.432;-77.518;2023-04-01T08:57:52;19;17;
65012;PMS5003;51715;39.432;-77.518;2023-04-01T09:00:35;23;22;
65012;PMS5003;51715;39.432;-77.518;2023-04-01T09:03:15;23;22;
65012;PMS5003;51715;39.432;-77.518;2023-04-01T09:06:06;23;21;
65012;PMS5003;51715;39.432;-77.518;2023-04-01T09:10:03;23;22;
65012;PMS5003;51715;39.432;-77.518;2023-04-01T09:13:08;23;22;
65012;PMS5003;51715;39.432;-77.518;2023-04-01T09:16:00;22;20;
65012;PMS5003;51715;39.432;-77.518;2023-04-01T09:18:50;22;20;
65012;PMS5003;51715;39.432;-77.518;2023-04-01T09:21:43;21;20;
65012;PMS5003;51715;39.432;-77.518;2023-04-01T09:24:26;26;24;
65012;PMS5003;51715;39.432;-77.518;2023-04-01T09:27:16;22;22;
65012;PMS5003;51715;39.432;-77.518;2023-04-01T09:30:48;20;20;
65012;PMS5003;51715;39.432;-77.518;2023-04-01T09:34:05;21;20;
65012;PMS5003;51715;39.432;-77.518;2023-04-01T09:37:23;28;26;
65012;PMS5003;51715;39.432;-77.518;2023-04-01T09:40:09;22;22;
65012;PMS5003;51715;39.432;-77.518;2023-04-01T09:42:44;22;21;
65012;PMS5003;51715;39.432;-77.518;2023-04-01T09:45:28;23;19;
65012;PMS5003;51715;39.432;-77.518;2023-04-01T09:48:11;21;20;
65012;PMS5003;51715;39.432;-77.518;2023-04-01T09:50:51;23;23;
65012;PMS5003;51715;39.432;-77.518;2023-04-01T09:53:30;19;19;
65012;PMS5003;51715;39.432;-77.518;2023-04-01T09:56:19;23;22;
65012;PMS5003;51715;39.432;-77.518;2023-04-01T10:01:15;19;19;
65012;PMS5003;51715;39.432;-77.518;2023-04-01T10:04:16;22;20;
65012;PMS5003;51715;39.432;-77.518;2023-04-01T10:07:10;21;20;
65012;PMS5003;51715;39.432;-77.518;2023-04-01T10:12:16;22;18;
65012;PMS5003;51715;39.432;-77.518;2023-04-01T10:15:34;20;18;
65012;PMS5003;51715;39.432;-77.518;2023-04-01T10:18:26;21;18;
65012;PMS5003;51715;39.432;-77.518;2023-04-01T10:21:16;26;24;
65012;PMS5003;51715;39.432;-77.518;2023-04-01T10:24:28;20;20;
65012;PMS5003;51715;39.432;-77.518;2023-04-01T10:28:23;22;20;
65012;PMS5003;51715;39.432;-77.518;2023-04-01T10:31:14;19;17;
65012;PMS5003;51715;39.432;-77.518;2023-04-01T10:34:12;20;20;
65012;PMS5003;51715;39.432;-77.518;2023-04-01T10:37:12;20;18;
65012;PMS5003;51715;39.432;-77.518;2023-04-01T10:40:05;25;20;
65012;PMS5003;51715;39.432;-77.518;2023-04-01T10:42:54;20;18;
65012;PMS5003;51715;39.432;-77.518;2023-04-01T10:45:58;20;19;
65012;PMS5003;51715;39.432;-77.518;2023-04-01T10:49:51;21;21;
65012;PMS5003;51715;39.432;-77.518;2023-04-01T10:52:41;18;17;
65012;PMS5003;51715;39.432;-77.518;2023-04-01T10:55:48;18;18;
65012;PMS5003;51715;39.432;-77.518;2023-04-01T10:58:40;19;17;
65012;PMS5003;51715;39.432;-77.518;2023-04-01T11:01:50;19;17;
65012;PMS5003;51715;39.432;-77.518;2023-04-01T11:07:30;18;16;
65012;PMS5003;51715;39.432;-77.518;2023-04-01T11:12:53;17;16;
65012;PMS5003;51715;39.432;-77.518;2023-04-01T11:15:56;17;17;
65012;PMS5003;51715;39.432;-77.518;2023-04-01T11:19:53;19;19;
65012;PMS5003;51715;39.432;-77.518;2023-04-01T11:22:49;19;17;
65012;PMS5003;51715;39.432;-77.518;2023-04-01T11:25:37;18;17;
65012;PMS5003;51715;39.432;-77.518;2023-04-01T11:28:34;16;14;
65012;PMS5003;51715;39.432;-77.518;2023-04-01T11:31:18;15;15;
65012;PMS5003;51715;39.432;-77.518;2023-04-01T11:33:53;19;18;
65012;PMS5003;51715;39.432;-77.518;2023-04-01T11:36:33;21;18;
65012;PMS5003;51715;39.432;-77.518;2023-04-01T11:39:13;24;22;
65012;PMS5003;51715;39.432;-77.518;2023-04-01T11:41:49;16;14;
65012;PMS5003;51715;39.432;-77.518;2023-04-01T11:44:27;13;13;
65012;PMS5003;51715;39.432;-77.518;2023-04-01T11:47:02;15;15;
65012;PMS5003;51715;39.432;-77.518;2023-04-01T11:49:49;15;15;
65012;PMS5003;51715;39.432;-77.518;2023-04-01T11:52:28;18;17;
65012;PMS5003;51715;39.432;-77.518;2023-04-01T11:55:10;14;14;
65012;PMS5003;51715;39.432;-77.518;2023-04-01T11:57:53;17;17;
65012;PMS5003;51715;39.432;-77.518;2023-04-01T12:00:38;15;15;
65012;PMS5003;51715;39.432;-77.518;2023-04-01T12:03:29;19;17;
65012;PMS5003;51715;39.432;-77.518;2023-04-01T12:06:15;18;18;
65012;PMS5003;51715;39.432;-77.518;2023-04-01T12:08:50;15;14;
65012;PMS5003;51715;39.432;-77.518;2023-04-01T12:11:29;14;13;
65012;PMS5003;51715;39.432;-77.518;2023-04-01T12:14:08;17;14;
65012;PMS5003;51715;39.432;-77.518;2023-04-01T12:16:47;19;19;
65012;PMS5003;51715;39.432;-77.518;2023-04-01T12:19:26;18;17;
65012;PMS5003;51715;39.432;-77.518;2023-04-01T12:22:10;21;18;
65012;PMS5003;51715;39.432;-77.518;2023-04-01T12:24:53;17;15;
65012;PMS5003;51715;39.432;-77.518;2023-04-01T12:27:33;18;18;
65012;PMS5003;51715;39.432;-77.518;2023-04-01T12:30:15;19;17;
65012;PMS5003;51715;39.432;-77.518;2023-04-01T12:33:04;16;15;
65012;PMS5003;51715;39.432;-77.518;2023-04-01T12:35:52;16;15;
65012;PMS5003;51715;39.432;-77.518;2023-04-01T12:38:31;21;19;
65012;PMS5003;51715;39.432;-77.518;2023-04-01T12:41:12;19;19;
65012;PMS5003;51715;39.432;-77.518;2023-04-01T12:44:01;16;16;
65012;PMS5003;51715;39.432;-77.518;2023-04-01T12:46:54;19;17;
65012;PMS5003;51715;39.432;-77.518;2023-04-01T12:51:54;14;14;
65012;PMS5003;51715;39.432;-77.518;2023-04-01T12:54:57;13;13;
65012;PMS5003;51715;39.432;-77.518;2023-04-01T12:57:45;17;17;
65012;PMS5003;51715;39.432;-77.518;2023-04-01T13:00:35;15;15;
65012;PMS5003;51715;39.432;-77.518;2023-04-01T13:03:18;15;13;
65012;PMS5003;51715;39.432;-77.518;2023-04-01T13:06:09;12;10;
65012;PMS5003;51715;39.432;-77.518;2023-04-01T13:08:53;12;12;
65012;PMS5003;51715;39.432;-77.518;2023-04-01T13:11:32;12;12;
65012;PMS5003;51715;39.432;-77.518;2023-04-01T13:14:12;11;11;
65012;PMS5003;51715;39.432;-77.518;2023-04-01T13:16:52;15;13;
65012;PMS5003;51715;39.432;-77.518;2023-04-01T13:19:25;14;13;
65012;PMS5003;51715;39.432;-77.518;2023-04-01T13:22:04;11;11;
65012;PMS5003;51715;39.432;-77.518;2023-04-01T13:24:41;15;14;
65012;PMS5003;51715;39.432;-77.518;2023-04-01T13:27:18;12;11;
65012;PMS5003;51715;39.432;-77.518;2023-04-01T13:29:59;12;12;
65012;PMS5003;51715;39.432;-77.518;2023-04-01T13:32:36;16;14;
65012;PMS5003;51715;39.432;-77.518;2023-04-01T13:35:18;16;13;
65012;PMS5003;51715;39.432;-77.518;2023-04-01T13:38:02;12;12;
65012;PMS5003;51715;39.432;-77.518;2023-04-01T13:42:55;13;13;
65012;PMS5003;51715;39.432;-77.518;2023-04-01T13:45:31;10;10;
65012;PMS5003;51715;39.432;-77.518;2023-04-01T13:48:45;9;9;
65012;PMS5003;51715;39.432;-77.518;2023-04-01T13:51:38;16;11;
65012;PMS5003;51715;39.432;-77.518;2023-04-01T13:54:26;11;11;
65012;PMS5003;51715;39.432;-77.518;2023-04-01T13:57:16;11;11;
65012;PMS5003;51715;39.432;-77.518;2023-04-01T13:59:59;11;10;
65012;PMS5003;51715;39.432;-77.518;2023-04-01T14:02:50;11;11;
65012;PMS5003;51715;39.432;-77.518;2023-04-01T14:05:42;13;13;
65012;PMS5003;51715;39.432;-77.518;2023-04-01T14:08:21;13;13;
65012;PMS5003;51715;39.432;-77.518;2023-04-01T14:11:05;12;10;
65012;PMS5003;51715;39.432;-77.518;2023-04-01T14:13:43;14;13;
65012;PMS5003;51715;39.432;-77.518;2023-04-01T14:16:25;14;13;
65012;PMS5003;51715;39.432;-77.518;2023-04-01T14:19:10;10;10;
65012;PMS5003;51715;39.432;-77.518;2023-04-01T14:21:51;9;9;
65012;PMS5003;51715;39.432;-77.518;2023-04-01T14:24:31;11;10;
65012;PMS5003;51715;39.432;-77.518;2023-04-01T14:27:16;8;8;
65012;PMS5003;51715;39.432;-77.518;2023-04-01T14:29:56;9;7;
65012;PMS5003;51715;39.432;-77.518;2023-04-01T14:32:39;9;9;
65012;PMS5003;51715;39.432;-77.518;2023-04-01T14:35:21;9;9;
65012;PMS5003;51715;39.432;-77.518;2023-04-01T14:38:00;10;10;
65012;PMS5003;51715;39.432;-77.518;2023-04-01T14:41:15;7;7;
65012;PMS5003;51715;39.432;-77.518;2023-04-01T14:43:54;8;7;
65012;PMS5003;51715;39.432;-77.518;2023-04-01T14:47:11;7;7;
65012;PMS5003;51715;39.432;-77.518;2023-04-01T14:49:53;9;8;
65012;PMS5003;51715;39.432;-77.518;2023-04-01T14:52:32;6;6;
65012;PMS5003;51715;39.432;-77.518;2023-04-01T14:55:03;6;6;
65012;PMS5003;51715;39.432;-77.518;2023-04-01T14:58:23;5;5;
65012;PMS5003;51715;39.432;-77.518;2023-04-01T15:01:11;8;8;
65012;PMS5003;51715;39.432;-77.518;2023-04-01T15:03:52;7;7;
65012;PMS5003;51715;39.432;-77.518;2023-04-01T15:06:42;6;6;
65012;PMS5003;51715;39.432;-77.518;2023-04-01T15:09:24;7;6;
65012;PMS5003;51715;39.432;-77.518;2023-04-01T15:12:05;7;6;
65012;PMS5003;51715;39.432;-77.518;2023-04-01T15:14:49;13;10;
65012;PMS5003;51715;39.432;-77.518;2023-04-01T15:17:34;8;8;
65012;PMS5003;51715;39.432;-77.518;2023-04-01T15:20:22;8;8;
65012;PMS5003;51715;39.432;-77.518;2023-04-01T15:23:04;5;5;
65012;PMS5003;51715;39.432;-77.518;2023-04-01T15:25:48;8;8;
65012;PMS5003;51715;39.432;-77.518;2023-04-01T15:28:32;10;10;
65012;PMS5003;51715;39.432;-77.518;2023-04-01T15:31:09;8;7;
65012;PMS5003;51715;39.432;-77.518;2023-04-01T15:33:47;6;6;
65012;PMS5003;51715;39.432;-77.518;2023-04-01T15:36:28;12;9;
65012;PMS5003;51715;39.432;-77.518;2023-04-01T15:39:05;9;7;
65012;PMS5003;51715;39.432;-77.518;2023-04-01T15:41:42;6;6;
65012;PMS5003;51715;39.432;-77.518;2023-04-01T15:44:26;8;7;
65012;PMS5003;51715;39.432;-77.518;2023-04-01T15:47:08;7;7;
65012;PMS5003;51715;39.432;-77.518;2023-04-01T15:50:12;7;7;
65012;PMS5003;51715;39.432;-77.518;2023-04-01T15:52:56;7;6;
65012;PMS5003;51715;39.432;-77.518;2023-04-01T15:55:40;5;5;
65012;PMS5003;51715;39.432;-77.518;2023-04-01T15:58:21;7;7;
65012;PMS5003;51715;39.432;-77.518;2023-04-01T16:01:07;9;8;
65012;PMS5003;51715;39.432;-77.518;2023-04-01T16:03:47;6;5;
65012;PMS5003;51715;39.432;-77.518;2023-04-01T16:06:24;5;5;
65012;PMS5003;51715;39.432;-77.518;2023-04-01T16:09:16;5;5;
65012;PMS5003;51715;39.432;-77.518;2023-04-01T16:11:59;4;4;
65012;PMS5003;51715;39.432;-77.518;2023-04-01T16:14:37;4;4;
65012;PMS5003;51715;39.432;-77.518;2023-04-01T16:17:20;5;5;
65012;PMS5003;51715;39.432;-77.518;2023-04-01T16:20:00;6;5;
65012;PMS5003;51715;39.432;-77.518;2023-04-01T16:22:40;4;4;
65012;PMS5003;51715;39.432;-77.518;2023-04-01T16:25:19;4;4;
65012;PMS5003;51715;39.432;-77.518;2023-04-01T16:27:58;4;4;
65012;PMS5003;51715;39.432;-77.518;2023-04-01T16:30:45;4;4;
65012;PMS5003;51715;39.432;-77.518;2023-04-01T16:33:20;9;6;
65012;PMS5003;51715;39.432;-77.518;2023-04-01T16:35:54;6;5;
65012;PMS5003;51715;39.432;-77.518;2023-04-01T16:38:27;6;6;
65012;PMS5003;51715;39.432;-77.518;2023-04-01T16:41:10;7;7;
65012;PMS5003;51715;39.432;-77.518;2023-04-01T16:43:44;7;7;
65012;PMS5003;51715;39.432;-77.518;2023-04-01T16:46:18;2;2;
65012;PMS5003;51715;39.432;-77.518;2023-04-01T16:49:00;5;5;
65012;PMS5003;51715;39.432;-77.518;2023-04-01T16:51:46;7;7;
65012;PMS5003;51715;39.432;-77.518;2023-04-01T16:54:25;3;3;
65012;PMS5003;51715;39.432;-77.518;2023-04-01T16:57:03;3;3;
65012;PMS5003;51715;39.432;-77.518;2023-04-01T16:59:45;5;5;
65012;PMS5003;51715;39.432;-77.518;2023-04-01T17:02:22;4;3;
65012;PMS5003;51715;39.432;-77.518;2023-04-01T17:04:55;5;5;
65012;PMS5003;51715;39.432;-77.518;2023-04-01T17:07:31;4;4;
65012;PMS5003;51715;39.432;-77.518;2023-04-01T17:10:26;3;3;
65012;PMS5003;51715;39.432;-77.518;2023-04-01T17:13:09;5;5;
65012;PMS5003;51715;39.432;-77.518;2023-04-01T17:15:57;6;6;
65012;PMS5003;51715;39.432;-77.518;2023-04-01T17:18:34;5;5;
65012;PMS5003;51715;39.432;-77.518;2023-04-01T17:21:13;6;6;
65012;PMS5003;51715;39.432;-77.518;2023-04-01T17:23:51;8;8;
65012;PMS5003;51715;39.432;-77.518;2023-04-01T17:26:30;5;4;
65012;PMS5003;51715;39.432;-77.518;2023-04-01T17:29:06;7;7;
65012;PMS5003;51715;39.432;-77.518;2023-04-01T17:31:45;8;8;
65012;PMS5003;51715;39.432;-77.518;2023-04-01T17:34:24;10;7;
65012;PMS5003;51715;39.432;-77.518;2023-04-01T17:37:06;8;7;
65012;PMS5003;51715;39.432;-77.518;2023-04-01T17:39:51;7;6;
65012;PMS5003;51715;39.432;-77.518;2023-04-01T17:42:31;7;7;
65012;PMS5003;51715;39.432;-77.518;2023-04-01T17:45:09;8;8;
65012;PMS5003;51715;39.432;-77.518;2023-04-01T17:47:57;8;8;
65012;PMS5003;51715;39.432;-77.518;2023-04-01T17:50:35;7;7;
65012;PMS5003;51715;39.432;-77.518;2023-04-01T17:53:19;7;7;
65012;PMS5003;51715;39.432;-77.518;2023-04-01T17:56:31;4;4;
65012;PMS5003;51715;39.432;-77.518;2023-04-01T17:59:16;5;5;
65012;PMS5003;51715;39.432;-77.518;2023-04-01T18:01:54;6;6;
65012;PMS5003;51715;39.432;-77.518;2023-04-01T18:04:52;5;5;
65012;PMS5003;51715;39.432;-77.518;2023-04-01T18:07:41;8;8;
65012;PMS5003;51715;39.432;-77.518;2023-04-01T18:10:23;10;8;
65012;PMS5003;51715;39.432;-77.518;2023-04-01T18:13:08;10;7;
65012;PMS5003;51715;39.432;-77.518;2023-04-01T18:15:52;6;4;
65012;PMS5003;51715;39.432;-77.518;2023-04-01T18:18:36;5;5;
65012;PMS5003;51715;39.432;-77.518;2023-04-01T18:21:18;5;5;
65012;PMS5003;51715;39.432;-77.518;2023-04-01T18:23:53;3;3;
65012;PMS5003;51715;39.432;-77.518;2023-04-01T18:26:26;3;3;
65012;PMS5003;51715;39.432;-77.518;2023-04-01T18:28:59;4;4;
65012;PMS5003;51715;39.432;-77.518;2023-04-01T18:31:39;6;6;
65012;PMS5003;51715;39.432;-77.518;2023-04-01T18:34:15;4;4;
65012;PMS5003;51715;39.432;-77.518;2023-04-01T18:37:12;5;5;
65012;PMS5003;51715;39.432;-77.518;2023-04-01T18:39:46;4;4;
65012;PMS5003;51715;39.432;-77.518;2023-04-01T18:42:22;4;4;
65012;PMS5003;51715;39.432;-77.518;2023-04-01T18:44:59;5;4;
65012;PMS5003;51715;39.432;-77.518;2023-04-01T18:47:38;2;2;
65012;PMS5003;51715;39.432;-77.518;2023-04-01T18:50:14;5;5;
65012;PMS5003;51715;39.432;-77.518;2023-04-01T18:52:50;5;5;
65012;PMS5003;51715;39.432;-77.518;2023-04-01T18:55:28;8;6;
65012;PMS5003;51715;39.432;-77.518;2023-04-01T18:58:13;6;5;
65012;PMS5003;51715;39.432;-77.518;2023-04-01T19:00:53;5;5;
65012;PMS5003;51715;39.432;-77.518;2023-04-01T19:03:33;5;5;
65012;PMS5003;51715;39.432;-77.518;2023-04-01T19:06:08;5;5;
65012;PMS5003;51715;39.432;-77.518;2023-04-01T19:08:46;8;5;
65012;PMS5003;51715;39.432;-77.518;2023-04-01T19:11:17;3;3;
65012;PMS5003;51715;39.432;-77.518;2023-04-01T19:13:54;3;3;
65012;PMS5003;51715;39.432;-77.518;2023-04-01T19:16:38;4;4;
65012;PMS5003;51715;39.432;-77.518;2023-04-01T19:19:21;3;3;
65012;PMS5003;51715;39.432;-77.518;2023-04-01T19:22:02;4;4;
65012;PMS5003;51715;39.432;-77.518;2023-04-01T19:24:52;4;4;
65012;PMS5003;51715;39.432;-77.518;2023-04-01T19:27:31;9;7;
65012;PMS5003;51715;39.432;-77.518;2023-04-01T19:30:10;5;4;
65012;PMS5003;51715;39.432;-77.518;2023-04-01T19:32:52;6;6;
65012;PMS5003;51715;39.432;-77.518;2023-04-01T19:35:29;8;7;
65012;PMS5003;51715;39.432;-77.518;2023-04-01T19:38:09;8;4;
65012;PMS5003;51715;39.432;-77.518;2023-04-01T19:40:49;6;6;
65012;PMS5003;51715;39.432;-77.518;2023-04-01T19:43:30;8;5;
65012;PMS5003;51715;39.432;-77.518;2023-04-01T19:46:25;4;3;
65012;PMS5003;51715;39.432;-77.518;2023-04-01T19:49:02;7;4;
65012;PMS5003;51715;39.432;-77.518;2023-04-01T19:51:43;4;4;
65012;PMS5003;51715;39.432;-77.518;2023-04-01T19:54:21;9;6;
65012;PMS5003;51715;39.432;-77.518;2023-04-01T19:57:00;5;3;
65012;PMS5003;51715;39.432;-77.518;2023-04-01T19:59:40;4;4;
65012;PMS5003;51715;39.432;-77.518;2023-04-01T20:02:25;7;6;
65012;PMS5003;51715;39.432;-77.518;2023-04-01T20:05:10;5;4;
65012;PMS5003;51715;39.432;-77.518;2023-04-01T20:07:53;5;4;
65012;PMS5003;51715;39.432;-77.518;2023-04-01T20:10:30;6;3;
65012;PMS5003;51715;39.432;-77.518;2023-04-01T20:13:06;5;4;
65012;PMS5003;51715;39.432;-77.518;2023-04-01T20:15:47;3;3;
65012;PMS5003;51715;39.432;-77.518;2023-04-01T20:18:32;2;2;
65012;PMS5003;51715;39.432;-77.518;2023-04-01T20:21:18;2;2;
65012;PMS5003;51715;39.432;-77.518;2023-04-01T20:23:58;4;4;
65012;PMS5003;51715;39.432;-77.518;2023-04-01T20:26:30;5;4;
65012;PMS5003;51715;39.432;-77.518;2023-04-01T20:36:13;3;1;
65012;PMS5003;51715;39.432;-77.518;2023-04-01T20:39:19;4;3;
65012;PMS5003;51715;39.432;-77.518;2023-04-01T20:42:04;2;2;
65012;PMS5003;51715;39.432;-77.518;2023-04-01T20:44:52;4;1;
65012;PMS5003;51715;39.432;-77.518;2023-04-01T20:47:36;1;1;
65012;PMS5003;51715;39.432;-77.518;2023-04-01T20:50:17;2;1;
65012;PMS5003;51715;39.432;-77.518;2023-04-01T20:52:56;2;2;
65012;PMS5003;51715;39.432;-77.518;2023-04-01T20:55:47;3;3;
65012;PMS5003;51715;39.432;-77.518;2023-04-01T20:58:36;2;2;
65012;PMS5003;51715;39.432;-77.518;2023-04-01T21:01:17;1;0;
65012;PMS5003;51715;39.432;-77.518;2023-04-01T21:03:59;1;1;
65012;PMS5003;51715;39.432;-77.518;2023-04-01T21:06:48;2;0;
65012;PMS5003;51715;39.432;-77.518;2023-04-01T21:09:31;4;2;
65012;PMS5003;51715;39.432;-77.518;2023-04-01T21:12:11;7;4;
65012;PMS5003;51715;39.432;-77.518;2023-04-01T21:14:55;1;1;
65012;PMS5003;51715;39.432;-77.518;2023-04-01T21:17:44;2;2;
65012;PMS5003;51715;39.432;-77.518;2023-04-01T21:20:27;0;0;
65012;PMS5003;51715;39.432;-77.518;2023-04-01T21:23:13;0;0;
65012;PMS5003;51715;39.432;-77.518;2023-04-01T21:25:56;2;2;
65012;PMS5003;51715;39.432;-77.518;2023-04-01T21:28:41;1;1;
65012;PMS5003;51715;39.432;-77.518;2023-04-01T21:31:24;2;1;
65012;PMS5003;51715;39.432;-77.518;2023-04-01T21:34:10;1;1;
65012;PMS5003;51715;39.432;-77.518;2023-04-01T21:37:24;2;2;
65012;PMS5003;51715;39.432;-77.518;2023-04-01T21:42:19;4;2;
65012;PMS5003;51715;39.432;-77.518;2023-04-01T21:44:58;2;2;
65012;PMS5003;51715;39.432;-77.518;2023-04-01T21:47:47;2;2;
65012;PMS5003;51715;39.432;-77.518;2023-04-01T21:50:42;5;3;
65012;PMS5003;51715;39.432;-77.518;2023-04-01T21:54:00;6;4;
65012;PMS5003;51715;39.432;-77.518;2023-04-01T21:56:50;4;2;
65012;PMS5003;51715;39.432;-77.518;2023-04-01T22:01:51;4;4;
65012;PMS5003;51715;39.432;-77.518;2023-04-01T22:04:43;6;5;
65012;PMS5003;51715;39.432;-77.518;2023-04-01T22:07:19;4;3;
65012;PMS5003;51715;39.432;-77.518;2023-04-01T22:09:52;9;5;